createdAt,value
2018-12-26T00:00:31.209Z,3.08
2018-12-26T00:03:01.074Z,3.08
2018-12-26T00:05:30.725Z,3.07
2018-12-26T00:08:00.761Z,3.05
2018-12-26T00:10:30.495Z,3.04
2018-12-26T00:12:59.762Z,3.04
2018-12-26T00:15:28.613Z,3.01
2018-12-26T00:17:57.945Z,3.00
2018-12-26T00:20:27.583Z,2.96
2018-12-26T00:22:56.429Z,2.93
2018-12-26T00:25:25.997Z,2.91
2018-12-26T00:27:54.820Z,2.90
2018-12-26T00:30:24.264Z,2.91
2018-12-26T00:32:53.752Z,2.86
2018-12-26T00:35:23.685Z,2.85
2018-12-26T00:37:53.277Z,2.84
2018-12-26T00:40:22.211Z,2.87
2018-12-26T00:42:51.644Z,2.94
2018-12-26T00:45:20.815Z,3.01
2018-12-26T00:47:49.693Z,3.05
2018-12-26T00:50:18.986Z,3.14
2018-12-26T00:52:47.916Z,3.16
2018-12-26T00:55:16.978Z,3.20
2018-12-26T00:57:46.235Z,3.27
2018-12-26T01:00:15.190Z,3.34
2018-12-26T01:02:44.627Z,3.42
2018-12-26T01:05:14.438Z,3.49
2018-12-26T01:07:43.715Z,3.53
2018-12-26T01:10:12.881Z,3.57
2018-12-26T01:12:42.076Z,3.56
2018-12-26T01:15:11.290Z,3.55
2018-12-26T01:17:40.883Z,3.47
2018-12-26T01:20:09.964Z,3.37
2018-12-26T01:22:39.106Z,3.28
2018-12-26T01:25:08.101Z,3.17
2018-12-26T01:27:37.028Z,3.12
2018-12-26T01:30:06.094Z,3.09
2018-12-26T01:32:35.281Z,3.02
2018-12-26T01:35:04.199Z,3.02
2018-12-26T01:37:33.129Z,2.98
2018-12-26T01:40:01.972Z,2.98
2018-12-26T01:42:30.873Z,2.96
2018-12-26T01:45:00.453Z,2.95
2018-12-26T01:47:29.941Z,2.97
2018-12-26T01:49:59.128Z,2.98
2018-12-26T01:52:28.361Z,3.04
2018-12-26T01:54:57.604Z,3.11
2018-12-26T01:57:27.044Z,3.11
2018-12-26T01:59:56.245Z,3.03
2018-12-26T02:02:25.603Z,3.04
2018-12-26T02:04:54.850Z,3.12
2018-12-26T02:07:24.157Z,3.08
2018-12-26T02:09:53.346Z,3.10
2018-12-26T02:12:22.369Z,3.15
2018-12-26T02:14:51.613Z,3.13
2018-12-26T02:17:20.849Z,3.15
2018-12-26T02:19:50.075Z,3.14
2018-12-26T02:22:18.981Z,3.15
2018-12-26T02:24:48.303Z,3.16
2018-12-26T02:27:17.297Z,3.10
2018-12-26T02:29:46.243Z,3.06
2018-12-26T02:32:15.434Z,3.09
2018-12-26T02:34:44.294Z,3.13
2018-12-26T02:37:13.218Z,3.19
2018-12-26T02:39:42.155Z,3.28
2018-12-26T02:42:11.710Z,3.31
2018-12-26T02:44:41.055Z,3.31
2018-12-26T02:47:09.910Z,3.32
2018-12-26T02:49:38.921Z,3.35
2018-12-26T02:52:08.517Z,3.37
2018-12-26T02:54:37.690Z,3.39
2018-12-26T02:57:06.726Z,3.39
2018-12-26T02:59:36.305Z,3.40
2018-12-26T03:02:05.913Z,3.39
2018-12-26T03:04:35.017Z,3.36
2018-12-26T03:07:04.026Z,3.36
2018-12-26T03:09:33.201Z,3.36
2018-12-26T03:12:02.118Z,3.35
2018-12-26T03:14:31.313Z,3.35
2018-12-26T03:17:01.261Z,3.32
2018-12-26T03:19:30.511Z,3.22
2018-12-26T03:21:59.449Z,3.11
2018-12-26T03:24:28.830Z,3.12
2018-12-26T03:26:58.206Z,3.16
2018-12-26T03:29:27.372Z,3.19
2018-12-26T03:31:56.224Z,3.23
2018-12-26T03:34:25.702Z,3.28
2018-12-26T03:36:55.327Z,3.31
2018-12-26T03:39:24.923Z,3.34
2018-12-26T03:41:54.526Z,3.38
2018-12-26T03:44:24.220Z,3.37
2018-12-26T03:46:53.547Z,3.38
2018-12-26T03:49:22.589Z,3.36
2018-12-26T03:51:51.963Z,3.35
2018-12-26T03:54:21.650Z,3.31
2018-12-26T03:56:50.971Z,3.26
2018-12-26T03:59:20.766Z,3.25
2018-12-26T04:01:49.992Z,3.22
2018-12-26T04:04:19.092Z,3.19
2018-12-26T04:06:48.280Z,3.15
2018-12-26T04:09:17.445Z,3.12
2018-12-26T04:11:46.445Z,3.08
2018-12-26T04:14:16.029Z,3.02
2018-12-26T04:16:44.884Z,2.93
2018-12-26T04:19:14.623Z,2.83
2018-12-26T04:21:44.067Z,2.73
2018-12-26T04:24:13.895Z,2.63
2018-12-26T04:26:43.027Z,2.54
2018-12-26T04:29:12.251Z,2.49
2018-12-26T04:31:41.472Z,2.46
2018-12-26T04:34:10.328Z,2.43
2018-12-26T04:36:39.168Z,2.37
2018-12-26T04:39:08.759Z,2.29
2018-12-26T04:41:38.577Z,2.18
2018-12-26T04:44:07.775Z,2.07
2018-12-26T04:46:36.870Z,1.97
2018-12-26T04:49:06.047Z,1.88
2018-12-26T04:51:35.675Z,1.82
2018-12-26T04:54:04.699Z,1.75
2018-12-26T04:56:33.569Z,1.71
2018-12-26T04:59:02.829Z,1.64
2018-12-26T05:01:32.372Z,1.58
2018-12-26T05:04:01.694Z,1.51
2018-12-26T05:06:30.891Z,1.46
2018-12-26T05:08:59.734Z,1.43
2018-12-26T05:11:29.000Z,1.41
2018-12-26T05:13:58.597Z,1.39
2018-12-26T05:16:27.661Z,1.32
2018-12-26T05:18:57.380Z,1.30
2018-12-26T05:21:26.680Z,1.31
2018-12-26T05:23:56.007Z,1.33
2018-12-26T05:26:25.197Z,1.34
2018-12-26T05:28:54.092Z,1.34
2018-12-26T05:31:23.265Z,1.39
2018-12-26T05:33:53.088Z,1.46
2018-12-26T05:36:22.205Z,1.49
2018-12-26T05:38:51.097Z,1.46
2018-12-26T05:41:20.336Z,1.43
2018-12-26T05:43:49.758Z,1.50
2018-12-26T05:46:18.621Z,1.52
2018-12-26T05:48:48.112Z,1.55
2018-12-26T05:51:17.211Z,1.57
2018-12-26T05:53:46.305Z,1.64
2018-12-26T05:56:15.551Z,1.67
2018-12-26T05:58:44.425Z,1.74
2018-12-26T06:01:14.288Z,1.77
2018-12-26T06:03:43.376Z,1.85
2018-12-26T06:06:12.549Z,1.93
2018-12-26T06:08:41.764Z,1.99
2018-12-26T06:11:10.607Z,1.96
2018-12-26T06:13:39.540Z,1.96
2018-12-26T06:16:09.391Z,2.02
2018-12-26T06:18:38.329Z,2.06
2018-12-26T06:21:07.448Z,2.13
2018-12-26T06:23:37.226Z,2.18
2018-12-26T06:26:06.160Z,2.22
2018-12-26T06:28:35.478Z,2.25
2018-12-26T06:31:04.388Z,2.26
2018-12-26T06:33:33.915Z,2.30
2018-12-26T06:36:03.488Z,2.25
2018-12-26T06:38:32.356Z,2.25
2018-12-26T06:41:01.202Z,2.28
2018-12-26T06:43:30.666Z,2.28
2018-12-26T06:46:00.137Z,2.25
2018-12-26T06:48:29.586Z,2.23
2018-12-26T06:50:59.102Z,2.20
2018-12-26T06:53:28.248Z,2.18
2018-12-26T06:55:57.694Z,2.14
2018-12-26T06:58:27.175Z,2.06
2018-12-26T07:00:56.437Z,1.98
2018-12-26T07:03:26.204Z,1.88
2018-12-26T07:05:55.385Z,1.77
2018-12-26T07:08:24.593Z,1.67
2018-12-26T07:10:53.469Z,1.57
2018-12-26T07:13:22.932Z,1.50
2018-12-26T07:15:51.801Z,1.44
2018-12-26T07:18:20.781Z,1.41
2018-12-26T07:20:49.608Z,1.44
2018-12-26T07:23:19.475Z,1.46
2018-12-26T07:25:49.210Z,1.52
2018-12-26T07:28:18.368Z,1.59
2018-12-26T07:30:47.658Z,1.66
2018-12-26T07:33:16.602Z,1.72
2018-12-26T07:35:45.920Z,1.67
2018-12-26T07:38:15.131Z,1.81
2018-12-26T07:40:46.330Z,1.86
2018-12-26T07:43:15.429Z,1.75
2018-12-26T07:45:44.855Z,1.75
2018-12-26T07:48:14.026Z,1.70
2018-12-26T07:50:43.302Z,1.63
2018-12-26T07:53:12.247Z,1.61
2018-12-26T07:55:41.434Z,1.58
2018-12-26T07:58:17.598Z,1.55
2018-12-26T08:00:41.661Z,1.56
2018-12-26T08:03:11.352Z,1.56
2018-12-26T08:05:40.446Z,1.52
2018-12-26T08:08:09.831Z,1.53
2018-12-26T08:10:39.382Z,1.57
2018-12-26T08:13:08.647Z,1.62
2018-12-26T08:15:37.576Z,1.67
2018-12-26T08:18:06.646Z,1.64
2018-12-26T08:20:35.484Z,1.68
2018-12-26T08:23:04.595Z,1.76
2018-12-26T08:25:33.744Z,1.86
2018-12-26T08:28:03.252Z,1.96
2018-12-26T08:30:32.776Z,2.04
2018-12-26T08:33:02.628Z,2.06
2018-12-26T08:35:32.196Z,2.13
2018-12-26T08:38:01.419Z,2.16
2018-12-26T08:40:30.869Z,2.15
2018-12-26T08:43:00.077Z,2.11
2018-12-26T08:45:28.923Z,2.14
2018-12-26T08:47:58.084Z,2.23
2018-12-26T08:50:27.278Z,2.24
2018-12-26T08:52:56.176Z,2.22
2018-12-26T08:55:25.529Z,2.23
2018-12-26T08:57:55.020Z,2.24
2018-12-26T09:00:24.540Z,2.28
2018-12-26T09:02:53.659Z,2.36
2018-12-26T09:05:22.605Z,2.40
2018-12-26T09:07:51.766Z,2.42
2018-12-26T09:10:20.877Z,2.38
2018-12-26T09:12:50.293Z,2.34
2018-12-26T09:15:20.076Z,2.42
2018-12-26T09:17:49.804Z,2.38
2018-12-26T09:20:18.820Z,2.24
2018-12-26T09:22:48.087Z,2.19
2018-12-26T09:25:17.261Z,2.21
2018-12-26T09:27:46.459Z,2.22
2018-12-26T09:30:15.649Z,2.29
2018-12-26T09:32:44.821Z,2.38
2018-12-26T09:35:14.180Z,2.41
2018-12-26T09:37:43.485Z,2.47
2018-12-26T09:40:12.753Z,2.57
2018-12-26T09:42:42.461Z,2.74
2018-12-26T09:45:11.397Z,2.95
2018-12-26T09:47:40.768Z,3.19
2018-12-26T09:50:10.090Z,3.44
2018-12-26T09:52:39.523Z,3.64
2018-12-26T09:55:08.449Z,3.82
2018-12-26T09:57:37.910Z,3.98
2018-12-26T10:00:08.454Z,4.08
2018-12-26T10:02:37.943Z,4.10
2018-12-26T10:05:08.133Z,4.07
2018-12-26T10:07:37.360Z,4.05
2018-12-26T10:10:07.184Z,4.05
2018-12-26T10:12:36.360Z,4.10
2018-12-26T10:15:06.496Z,4.17
2018-12-26T10:17:36.762Z,4.18
2018-12-26T10:20:06.133Z,4.20
2018-12-26T10:22:36.027Z,4.24
2018-12-26T10:25:05.283Z,4.21
2018-12-26T10:27:34.468Z,4.20
2018-12-26T10:30:03.722Z,4.20
2018-12-26T10:32:32.915Z,4.24
2018-12-26T10:35:02.128Z,4.20
2018-12-26T10:37:32.033Z,4.19
2018-12-26T10:40:01.957Z,4.21
2018-12-26T10:42:31.339Z,4.25
2018-12-26T10:45:00.958Z,4.31
2018-12-26T10:47:30.288Z,4.35
2018-12-26T10:49:59.883Z,4.38
2018-12-26T10:52:29.168Z,4.39
2018-12-26T10:54:58.585Z,4.47
2018-12-26T10:57:27.942Z,4.60
2018-12-26T10:59:57.088Z,4.68
2018-12-26T11:02:26.276Z,4.76
2018-12-26T11:04:55.404Z,4.85
2018-12-26T11:07:24.555Z,4.89
2018-12-26T11:09:53.668Z,4.89
2018-12-26T11:12:23.290Z,4.84
2018-12-26T11:14:52.486Z,4.82
2018-12-26T11:17:21.598Z,4.86
2018-12-26T11:19:50.688Z,4.95
2018-12-26T11:22:19.972Z,5.07
2018-12-26T11:24:49.492Z,5.19
2018-12-26T11:27:19.716Z,5.29
2018-12-26T11:29:48.960Z,5.41
2018-12-26T11:32:17.883Z,5.53
2018-12-26T11:34:47.261Z,5.66
2018-12-26T11:37:16.972Z,5.80
2018-12-26T11:39:46.735Z,5.87
2018-12-26T11:42:16.322Z,5.89
2018-12-26T11:44:45.587Z,5.90
2018-12-26T11:47:14.786Z,5.89
2018-12-26T11:49:43.890Z,5.87
2018-12-26T11:52:13.325Z,5.85
2018-12-26T11:54:42.180Z,5.79
2018-12-26T11:57:11.509Z,5.80
2018-12-26T11:59:40.776Z,5.81
2018-12-26T12:02:09.961Z,5.82
2018-12-26T12:04:38.801Z,5.87
2018-12-26T12:07:07.793Z,5.93
2018-12-26T12:09:36.785Z,5.97
2018-12-26T12:12:06.001Z,6.00
2018-12-26T12:14:35.295Z,6.03
2018-12-26T12:17:04.595Z,6.09
2018-12-26T12:19:33.627Z,6.18
2018-12-26T12:22:03.199Z,6.25
2018-12-26T12:24:32.423Z,6.32
2018-12-26T12:27:01.285Z,6.38
2018-12-26T12:29:35.921Z,6.42
2018-12-26T12:32:01.196Z,6.41
2018-12-26T12:34:30.553Z,6.36
2018-12-26T12:36:59.824Z,6.31
2018-12-26T12:39:30.039Z,6.23
2018-12-26T12:42:01.383Z,6.17
2018-12-26T12:44:29.679Z,6.15
2018-12-26T12:46:59.066Z,6.16
2018-12-26T12:49:28.285Z,6.16
2018-12-26T12:51:57.919Z,6.19
2018-12-26T12:54:27.396Z,6.23
2018-12-26T12:56:56.896Z,6.29
2018-12-26T12:59:26.429Z,6.32
2018-12-26T13:01:55.409Z,6.35
2018-12-26T13:04:24.602Z,6.38
2018-12-26T13:06:53.899Z,6.39
2018-12-26T13:09:23.421Z,6.39
2018-12-26T13:11:52.975Z,6.37
2018-12-26T13:14:22.250Z,6.34
2018-12-26T13:16:51.840Z,6.29
2018-12-26T13:19:20.752Z,6.24
2018-12-26T13:21:49.624Z,6.21
2018-12-26T13:24:18.927Z,6.15
2018-12-26T13:26:47.774Z,6.12
2018-12-26T13:29:16.632Z,6.13
2018-12-26T13:31:45.532Z,6.14
2018-12-26T13:34:14.394Z,6.14
2018-12-26T13:36:43.592Z,6.13
2018-12-26T13:39:13.065Z,6.18
2018-12-26T13:41:41.911Z,6.23
2018-12-26T13:44:11.720Z,6.27
2018-12-26T13:46:40.921Z,6.26
2018-12-26T13:49:10.128Z,6.30
2018-12-26T13:51:39.597Z,6.33
2018-12-26T13:54:08.861Z,6.30
2018-12-26T13:56:38.078Z,6.26
2018-12-26T13:59:07.586Z,6.21
2018-12-26T14:01:36.791Z,6.14
2018-12-26T14:04:05.789Z,6.06
2018-12-26T14:06:34.729Z,5.99
2018-12-26T14:09:04.265Z,5.96
2018-12-26T14:11:33.497Z,5.92
2018-12-26T14:14:02.833Z,5.90
2018-12-26T14:16:31.691Z,5.89
2018-12-26T14:19:00.649Z,5.91
2018-12-26T14:21:29.934Z,5.94
2018-12-26T14:23:59.268Z,5.98
2018-12-26T14:26:28.776Z,6.01
2018-12-26T14:28:57.990Z,6.02
2018-12-26T14:31:27.044Z,6.03
2018-12-26T14:33:56.249Z,5.99
2018-12-26T14:36:25.445Z,5.96
2018-12-26T14:38:54.568Z,5.92
2018-12-26T14:41:23.742Z,5.89
2018-12-26T14:43:53.087Z,5.86
2018-12-26T14:46:22.268Z,5.80
2018-12-26T14:48:51.120Z,5.75
2018-12-26T14:51:26.340Z,5.73
2018-12-26T14:53:51.603Z,5.74
2018-12-26T14:56:20.448Z,5.71
2018-12-26T14:58:49.857Z,5.71
2018-12-26T15:01:19.608Z,5.72
2018-12-26T15:03:49.256Z,5.74
2018-12-26T15:06:18.720Z,5.78
2018-12-26T15:08:47.627Z,5.78
2018-12-26T15:11:16.661Z,5.79
2018-12-26T15:13:45.525Z,5.78
2018-12-26T15:16:14.856Z,5.75
2018-12-26T15:18:44.987Z,5.71
2018-12-26T15:21:14.129Z,5.70
2018-12-26T15:23:44.023Z,5.67
2018-12-26T15:26:13.686Z,5.66
2018-12-26T15:28:42.984Z,5.65
2018-12-26T15:31:12.146Z,5.64
2018-12-26T15:33:41.172Z,5.61
2018-12-26T15:36:10.850Z,5.59
2018-12-26T15:38:40.171Z,5.59
2018-12-26T15:41:09.636Z,5.59
2018-12-26T15:43:38.878Z,5.59
2018-12-26T15:46:07.814Z,5.60
2018-12-26T15:48:37.789Z,5.59
2018-12-26T15:51:07.067Z,5.61
2018-12-26T15:53:35.915Z,5.61
2018-12-26T15:56:05.040Z,5.60
2018-12-26T15:58:33.982Z,5.58
2018-12-26T16:01:03.726Z,5.54
2018-12-26T16:03:32.895Z,5.54
2018-12-26T16:06:01.822Z,5.53
2018-12-26T16:08:30.843Z,5.56
2018-12-26T16:11:00.478Z,5.56
2018-12-26T16:13:29.850Z,5.56
2018-12-26T16:15:59.160Z,5.57
2018-12-26T16:18:28.974Z,5.55
2018-12-26T16:20:58.354Z,5.53
2018-12-26T16:23:27.830Z,5.49
2018-12-26T16:25:57.398Z,5.47
2018-12-26T16:28:26.691Z,5.46
2018-12-26T16:30:55.955Z,5.46
2018-12-26T16:33:24.809Z,5.47
2018-12-26T16:35:54.107Z,5.49
2018-12-26T16:38:23.669Z,5.52
2018-12-26T16:40:52.808Z,5.54
2018-12-26T16:43:22.489Z,5.57
2018-12-26T16:45:51.556Z,5.59
2018-12-26T16:48:21.115Z,5.60
2018-12-26T16:50:50.466Z,5.62
2018-12-26T16:53:19.340Z,5.65
2018-12-26T16:55:48.592Z,5.67
2018-12-26T16:58:17.468Z,5.69
2018-12-26T17:00:54.812Z,5.68
2018-12-26T17:03:17.835Z,5.68
2018-12-26T17:05:47.117Z,5.70
2018-12-26T17:08:16.329Z,5.72
2018-12-26T17:10:45.644Z,5.74
2018-12-26T17:13:14.508Z,5.76
2018-12-26T17:15:43.706Z,5.79
2018-12-26T17:18:12.744Z,5.79
2018-12-26T17:20:42.190Z,5.80
2018-12-26T17:23:11.470Z,5.82
2018-12-26T17:25:40.924Z,5.83
2018-12-26T17:28:09.967Z,5.85
2018-12-26T17:30:39.543Z,5.88
2018-12-26T17:33:09.319Z,5.90
2018-12-26T17:35:38.241Z,5.91
2018-12-26T17:38:07.866Z,5.92
2018-12-26T17:40:37.153Z,5.94
2018-12-26T17:43:06.103Z,5.94
2018-12-26T17:45:35.751Z,5.96
2018-12-26T17:48:04.781Z,5.99
2018-12-26T17:50:53.246Z,6.01
2018-12-26T17:53:37.631Z,6.03
2018-12-26T17:56:17.518Z,6.07
2018-12-26T17:58:59.056Z,6.08
2018-12-26T18:01:35.972Z,6.08
2018-12-26T18:04:05.262Z,6.13
2018-12-26T18:06:34.664Z,6.15
2018-12-26T18:09:05.411Z,6.16
2018-12-26T18:11:34.926Z,6.17
2018-12-26T18:14:04.617Z,6.20
2018-12-26T18:16:33.645Z,6.21
2018-12-26T18:19:03.137Z,6.20
2018-12-26T18:21:32.776Z,6.18
2018-12-26T18:24:02.396Z,6.15
2018-12-26T18:26:32.892Z,6.16
2018-12-26T18:29:02.530Z,6.16
2018-12-26T18:31:32.218Z,6.16
2018-12-26T18:34:01.677Z,6.16
2018-12-26T18:36:30.631Z,6.17
2018-12-26T18:38:59.852Z,6.18
2018-12-26T18:41:29.081Z,6.19
2018-12-26T18:43:58.381Z,6.19
2018-12-26T18:46:28.117Z,6.20
2018-12-26T18:48:57.494Z,6.20
2018-12-26T18:51:26.605Z,6.19
2018-12-26T18:53:56.614Z,6.21
2018-12-26T18:56:26.470Z,6.22
2018-12-26T18:58:55.759Z,6.23
2018-12-26T19:01:30.612Z,6.23
2018-12-26T19:03:56.572Z,6.25
2018-12-26T19:06:25.525Z,6.24
2018-12-26T19:08:55.317Z,6.27
2018-12-26T19:11:24.984Z,6.25
2018-12-26T19:13:54.285Z,6.24
2018-12-26T19:16:26.657Z,6.21
2018-12-26T19:18:55.579Z,6.22
2018-12-26T19:21:25.526Z,6.21
2018-12-26T19:23:55.049Z,6.21
2018-12-26T19:26:24.285Z,6.22
2018-12-26T19:28:53.224Z,6.22
2018-12-26T19:31:22.477Z,6.20
2018-12-26T19:33:51.648Z,6.18
2018-12-26T19:36:21.185Z,6.18
2018-12-26T19:38:50.367Z,6.17
2018-12-26T19:41:20.012Z,6.16
2018-12-26T19:43:49.411Z,6.16
2018-12-26T19:46:18.597Z,6.15
2018-12-26T19:48:48.218Z,6.16
2018-12-26T19:51:17.624Z,6.19
2018-12-26T19:53:47.224Z,6.22
2018-12-26T19:56:16.725Z,6.23
2018-12-26T19:58:46.253Z,6.25
2018-12-26T20:01:16.028Z,6.29
2018-12-26T20:03:52.320Z,6.32
2018-12-26T20:06:21.574Z,6.32
2018-12-26T20:08:50.542Z,6.33
2018-12-26T20:11:20.104Z,6.35
2018-12-26T20:13:49.724Z,6.34
2018-12-26T20:16:19.041Z,6.33
2018-12-26T20:18:48.100Z,6.33
2018-12-26T20:21:17.617Z,6.35
2018-12-26T20:23:47.791Z,6.35
2018-12-26T20:26:16.830Z,6.37
2018-12-26T20:28:46.756Z,6.39
2018-12-26T20:31:16.045Z,6.40
2018-12-26T20:33:45.656Z,6.43
2018-12-26T20:36:14.784Z,6.44
2018-12-26T20:38:43.626Z,6.47
2018-12-26T20:41:13.151Z,6.49
2018-12-26T20:43:43.115Z,6.50
2018-12-26T20:46:11.975Z,6.51
2018-12-26T20:48:41.544Z,6.52
2018-12-26T20:51:10.487Z,6.50
2018-12-26T20:53:39.433Z,6.48
2018-12-26T20:56:08.729Z,6.48
2018-12-26T20:58:38.259Z,6.47
2018-12-26T21:01:07.631Z,6.47
2018-12-26T21:03:37.033Z,6.46
2018-12-26T21:06:06.527Z,6.48
2018-12-26T21:08:35.978Z,6.44
2018-12-26T21:11:05.252Z,6.46
2018-12-26T21:13:34.352Z,6.47
2018-12-26T21:16:03.644Z,6.49
2018-12-26T21:18:32.584Z,6.50
2018-12-26T21:21:01.517Z,6.51
2018-12-26T21:23:30.965Z,6.51
2018-12-26T21:25:59.906Z,6.50
2018-12-26T21:28:29.338Z,6.50
2018-12-26T21:30:58.389Z,6.52
2018-12-26T21:33:27.356Z,6.54
2018-12-26T21:35:56.861Z,6.56
2018-12-26T21:38:25.721Z,6.57
2018-12-26T21:40:54.637Z,6.58
2018-12-26T21:43:23.558Z,6.59
2018-12-26T21:45:52.837Z,6.60
2018-12-26T21:48:21.901Z,6.59
2018-12-26T21:50:51.078Z,6.56
2018-12-26T21:53:20.556Z,6.53
2018-12-26T21:55:49.940Z,6.53
2018-12-26T21:58:19.464Z,6.53
2018-12-26T22:00:48.948Z,6.54
2018-12-26T22:03:17.924Z,6.55
2018-12-26T22:05:46.778Z,6.55
2018-12-26T22:08:15.631Z,6.55
2018-12-26T22:10:45.044Z,6.57
2018-12-26T22:13:14.538Z,6.57
2018-12-26T22:15:44.040Z,6.59
2018-12-26T22:18:13.244Z,6.58
2018-12-26T22:20:42.432Z,6.58
2018-12-26T22:23:11.619Z,6.57
2018-12-26T22:25:40.900Z,6.59
2018-12-26T22:28:10.320Z,6.59
2018-12-26T22:30:39.251Z,6.61
2018-12-26T22:33:08.725Z,6.61
2018-12-26T22:35:37.593Z,6.61
2018-12-26T22:38:07.488Z,6.63
2018-12-26T22:40:36.350Z,6.64
2018-12-26T22:43:05.625Z,6.64
2018-12-26T22:45:34.478Z,6.63
2018-12-26T22:48:03.647Z,6.64
2018-12-26T22:50:32.592Z,6.65
2018-12-26T22:53:01.822Z,6.67
2018-12-26T22:55:31.321Z,6.70
2018-12-26T22:58:00.169Z,6.70
2018-12-26T23:00:40.973Z,6.73
2018-12-26T23:03:10.493Z,6.76
2018-12-26T23:05:39.918Z,6.76
2018-12-26T23:08:09.197Z,6.76
2018-12-26T23:10:38.393Z,6.75
2018-12-26T23:13:07.495Z,6.77
2018-12-26T23:15:37.313Z,6.71
2018-12-26T23:18:06.504Z,6.69
2018-12-26T23:20:35.613Z,6.71
2018-12-26T23:23:05.106Z,6.65
2018-12-26T23:25:34.272Z,6.60
2018-12-26T23:28:03.511Z,6.52
2018-12-26T23:30:32.991Z,6.43
2018-12-26T23:33:01.928Z,6.37
2018-12-26T23:35:31.412Z,6.30
2018-12-26T23:38:00.269Z,6.29
2018-12-26T23:40:29.108Z,6.34
2018-12-26T23:42:58.041Z,6.30
2018-12-26T23:45:26.891Z,6.11
2018-12-26T23:47:56.399Z,6.00
2018-12-26T23:50:26.004Z,5.85
2018-12-26T23:52:54.940Z,5.79
2018-12-26T23:55:24.132Z,5.78
2018-12-26T23:57:53.322Z,5.80
